Cherokee, IA

12:26 PM CST on November 17, 2019 (GMT -0600)
Cherokee Municipal

Weather History for KCKP - October, 2019

Change the Weather History Date:

Sunday, October 20, 2019

  Actual Average Record
Temperature  
Mean Temperature 48 °F -  
Max Temperature 62 °F 59 °F 84 °F (1953)
Min Temperature 33 °F 30 °F 10 °F (1960)
Degree Days  
Heating Degree Days 18    
Moisture  
Dew Point 40 °F    
Average Humidity 74    
Maximum Humidity 100    
Minimum Humidity 39    
Precipitation  
Precipitation 0.02 in - - ()
Sea Level Pressure  
Sea Level Pressure 29.72 in    
Wind  
Wind Speed 5 mph ()    
Max Wind Speed 22 mph    
Max Gust Speed 29 mph    
Visibility 10.0 miles    
Events Rain    
Averages and records for this station are not official NWS values.
T = Trace of Precipitation, MM = Missing Value Source: Averaged Metar Reports

Daily Weather History Graph

Daily Weather History Graph

Search for Another Location

Airport or City:

Astronomy

Oct. 20, 2019 Rise Set
Actual Time 7:41 AM CDT 6:32 PM CDT
Civil Twilight 7:12 AM CDT 7:00 PM CDT
Nautical Twilight 6:39 AM CDT 7:33 PM CDT
Astronomical Twilight 6:06 AM CDT 8:06 PM CDT
Moon 11:36 PM CDT (10/20) 2:15 PM CDT (10/20)
Length of Visible Light 11h 48m
Length of Day
10h 51m
Waning Gibbous, 59% of the Moon is Illuminated
Oct 20
Waning Gibbous
Oct 21
Last Quarter
Oct 27
New
Nov 4
First Quarter
Nov 12
Full

Hourly Weather History & Observations

Time (CDT) Temp. Dew Point Humidity Pressure Visibility Wind Dir Wind Speed Gust Speed Precip Events Conditions
12:15 AM 36.9 °F 35.4 °F 95% 29.77 in 10.0 mi Calm Calm - N/A   Clear
12:35 AM 37.9 °F 37.2 °F 97% 29.77 in 10.0 mi Calm Calm - N/A   Clear
12:55 AM 37.6 °F 36.7 °F 97% 29.77 in 10.0 mi Calm Calm - N/A   Clear
1:15 AM 38.3 °F 36.5 °F 93% 29.76 in 10.0 mi Calm Calm - N/A   Clear
1:35 AM 37.0 °F 36.0 °F 96% 29.76 in 10.0 mi Calm Calm - N/A   Clear
1:55 AM 37.4 °F 36.9 °F 98% 29.77 in 10.0 mi Calm Calm - N/A   Clear
2:15 AM 36.9 °F 36.5 °F 99% 29.77 in 10.0 mi Calm Calm - N/A   Clear
2:35 AM 35.6 °F 35.4 °F 99% 29.77 in 10.0 mi Calm Calm - N/A   Clear
2:55 AM 36.5 °F 36.5 °F 100% 29.77 in 10.0 mi Calm Calm - N/A   Clear
3:15 AM 36.9 °F 36.9 °F 100% 29.77 in 10.0 mi Calm Calm - N/A   Clear
3:35 AM 35.8 °F 35.6 °F 99% 29.77 in 10.0 mi Calm Calm - N/A   Clear
3:55 AM 36.1 °F 36.1 °F 100% 29.77 in 10.0 mi Calm Calm - N/A   Clear
4:15 AM 35.8 °F 35.8 °F 100% 29.77 in 10.0 mi Calm Calm - N/A   Clear
4:35 AM 34.5 °F 34.5 °F 100% 29.77 in 10.0 mi Calm Calm - N/A   Clear
4:55 AM 34.7 °F 34.7 °F 100% 29.78 in 10.0 mi Calm Calm - N/A   Clear
5:15 AM 34.0 °F 34.0 °F 100% 29.78 in 10.0 mi Calm Calm - N/A   Clear
5:35 AM 34.7 °F 34.7 °F 100% 29.78 in 10.0 mi Calm Calm - N/A   Clear
5:55 AM 34.2 °F 34.2 °F 100% 29.78 in 10.0 mi Calm Calm - N/A   Clear
6:15 AM 35.1 °F 35.1 °F 100% 29.78 in 10.0 mi Calm Calm - N/A   Clear
6:35 AM 34.7 °F 34.7 °F 100% 29.78 in 10.0 mi Calm Calm - N/A   Clear
6:55 AM 33.8 °F 33.8 °F 100% 29.78 in 10.0 mi Calm Calm - N/A   Clear
7:15 AM 34.7 °F 34.7 °F 100% 29.78 in 10.0 mi Calm Calm - N/A   Clear
7:35 AM 34.5 °F 34.5 °F 100% 29.78 in 10.0 mi Calm Calm - N/A   Clear
7:55 AM 34.9 °F 34.9 °F 100% 29.78 in 10.0 mi Calm Calm - N/A   Clear
8:15 AM 34.2 °F 34.2 °F 100% 29.77 in 10.0 mi Calm Calm - N/A   Clear
8:35 AM 35.8 °F 35.8 °F 100% 29.77 in 10.0 mi Calm Calm - N/A   Clear
8:55 AM 37.9 °F 37.9 °F 100% 29.78 in 10.0 mi Calm Calm - N/A   Clear
9:15 AM 43.0 °F 43.0 °F 100% 29.79 in 10.0 mi Calm Calm - N/A   Clear
9:35 AM 49.5 °F 47.8 °F 94% 29.79 in 10.0 mi Calm Calm - N/A   Clear
9:55 AM 52.0 °F 47.3 °F 84% 29.80 in 10.0 mi South 6.9 mph - N/A   Clear
10:15 AM 53.1 °F 47.1 °F 80% 29.80 in 10.0 mi South 8.1 mph - N/A   Clear
10:35 AM 54.9 °F 47.1 °F 75% 29.80 in 10.0 mi South 10.4 mph - N/A   Clear
10:55 AM 56.1 °F 47.8 °F 74% 29.80 in 10.0 mi SSE 8.1 mph 17.3 mph N/A   Clear
11:15 AM 57.9 °F 47.7 °F 69% 29.79 in 10.0 mi SSE 11.5 mph 19.6 mph N/A   Clear
11:35 AM 57.4 °F 47.8 °F 70% 29.78 in 10.0 mi SSE 11.5 mph 19.6 mph N/A   Clear
11:55 AM 58.3 °F 48.6 °F 70% 29.78 in 10.0 mi SSE 13.8 mph 18.4 mph N/A   Clear
12:15 PM 59.0 °F 47.1 °F 65% 29.77 in 10.0 mi SSE 13.8 mph 19.6 mph N/A   Clear
12:35 PM 59.9 °F 45.7 °F 59% 29.76 in 10.0 mi SSE 16.1 mph 24.2 mph N/A   Clear
12:55 PM 59.5 °F 43.7 °F 56% 29.75 in 10.0 mi SSE 12.7 mph 20.7 mph N/A   Clear
1:15 PM 60.6 °F 42.4 °F 51% 29.76 in 10.0 mi SSE 18.4 mph 25.3 mph N/A   Clear
1:35 PM 60.8 °F 42.6 °F 51% 29.75 in 10.0 mi SSE 13.8 mph 21.9 mph N/A   Clear
1:55 PM 61.5 °F 41.7 °F 48% 29.75 in 10.0 mi SSE 17.3 mph 23.0 mph N/A   Clear
2:15 PM 61.7 °F 39.6 °F 44% 29.76 in 10.0 mi South 21.9 mph 26.5 mph N/A   Clear
2:35 PM 62.1 °F 37.0 °F 39% 29.75 in 10.0 mi SSE 20.7 mph 28.8 mph N/A   Clear
2:55 PM 61.3 °F 37.6 °F 41% 29.73 in 10.0 mi SSE 15.0 mph 23.0 mph N/A   Clear
3:15 PM 61.5 °F 37.8 °F 41% 29.72 in 10.0 mi SSE 15.0 mph 23.0 mph N/A   Clear
3:35 PM 61.0 °F 38.1 °F 43% 29.72 in 10.0 mi SE 12.7 mph 19.6 mph N/A   Clear
3:55 PM 60.8 °F 37.9 °F 43% 29.72 in 10.0 mi SE 12.7 mph 21.9 mph N/A   Clear
4:15 PM 60.3 °F 38.7 °F 45% 29.71 in 10.0 mi SE 12.7 mph 20.7 mph N/A   Mostly Cloudy
4:35 PM 60.1 °F 37.9 °F 44% 29.69 in 10.0 mi SE 15.0 mph 20.7 mph N/A   Overcast
4:55 PM 60.3 °F 35.4 °F 39% 29.69 in 10.0 mi SE 16.1 mph 23.0 mph N/A   Overcast
5:15 PM 60.1 °F 37.2 °F 43% 29.66 in 10.0 mi ESE 13.8 mph 24.2 mph N/A   Mostly Cloudy
5:35 PM 59.4 °F 38.3 °F 46% 29.65 in 10.0 mi ESE 12.7 mph 18.4 mph N/A   Scattered Clouds
5:55 PM 59.9 °F 38.1 °F 44% 29.64 in 10.0 mi ESE 11.5 mph 21.9 mph N/A   Mostly Cloudy
6:15 PM 59.4 °F 38.8 °F 47% 29.65 in 10.0 mi ESE 15.0 mph 20.7 mph N/A   Mostly Cloudy
6:35 PM 59.0 °F 39.0 °F 48% 29.64 in 10.0 mi ESE 13.8 mph 23.0 mph N/A   Mostly Cloudy
6:55 PM 59.0 °F 37.6 °F 45% 29.63 in 10.0 mi SE 19.6 mph 26.5 mph N/A   Overcast
7:15 PM 58.8 °F 37.0 °F 44% 29.63 in 10.0 mi SE 19.6 mph 26.5 mph N/A   Overcast
7:35 PM 58.3 °F 37.0 °F 45% 29.64 in 10.0 mi SE 15.0 mph 24.2 mph N/A   Overcast
7:55 PM 58.3 °F 37.4 °F 46% 29.64 in 10.0 mi SE 17.3 mph 25.3 mph N/A   Overcast
8:15 PM 57.7 °F 37.9 °F 48% 29.62 in 10.0 mi ESE 16.1 mph 25.3 mph N/A   Overcast
8:35 PM 57.4 °F 37.9 °F 48% 29.62 in 10.0 mi ESE 16.1 mph 25.3 mph N/A   Overcast
8:55 PM 57.0 °F 38.7 °F 50% 29.63 in 10.0 mi SE 16.1 mph 25.3 mph N/A Rain Light Rain
9:15 PM 54.7 °F 40.6 °F 59% 29.62 in 10.0 mi ESE 15.0 mph 24.2 mph N/A   Overcast
9:35 PM 55.4 °F 39.2 °F 54% 29.62 in 10.0 mi SE 17.3 mph 25.3 mph N/A   Overcast
9:55 PM 55.4 °F 40.1 °F 56% 29.62 in 10.0 mi SE 15.0 mph 27.6 mph N/A Rain Light Rain
10:15 PM 51.8 °F 45.9 °F 80% 29.64 in 10.0 mi SSE 12.7 mph 16.1 mph 0.01 in Rain Light Rain
10:35 PM 51.1 °F 47.3 °F 87% 29.63 in 10.0 mi SE 9.2 mph - 0.01 in Rain Light Rain
10:55 PM 50.5 °F 48.0 °F 91% 29.62 in 10.0 mi SE 9.2 mph - 0.02 in Rain Light Rain
11:15 PM 50.4 °F 48.6 °F 94% 29.60 in 10.0 mi SE 12.7 mph 19.6 mph N/A   Overcast
11:35 PM 50.5 °F 49.1 °F 95% 29.57 in 10.0 mi ESE 9.2 mph 18.4 mph N/A   Overcast
11:55 PM 50.9 °F 49.1 °F 94% 29.57 in 10.0 mi ESE 13.8 mph 19.6 mph N/A   Overcast